sensor_id;sensor_type;location;lat;lon;timestamp;temperature;humidity
2130;DHT22;1071;52.544;13.374;2022-08-21T00:01:11;22.40;99.90
2130;DHT22;1071;52.544;13.374;2022-08-21T00:03:40;22.40;99.90
2130;DHT22;1071;52.544;13.374;2022-08-21T00:06:08;22.40;99.90
2130;DHT22;1071;52.544;13.374;2022-08-21T00:08:38;22.30;99.90
2130;DHT22;1071;52.544;13.374;2022-08-21T00:11:08;22.30;99.90
2130;DHT22;1071;52.544;13.374;2022-08-21T00:13:37;22.30;99.90
2130;DHT22;1071;52.544;13.374;2022-08-21T00:16:04;22.30;99.90
2130;DHT22;1071;52.544;13.374;2022-08-21T00:18:31;22.30;99.90
2130;DHT22;1071;52.544;13.374;2022-08-21T00:20:59;22.30;99.90
2130;DHT22;1071;52.544;13.374;2022-08-21T00:23:26;22.30;99.90
2130;DHT22;1071;52.544;13.374;2022-08-21T00:25:54;22.30;99.90
2130;DHT22;1071;52.544;13.374;2022-08-21T00:28:21;22.30;99.90
2130;DHT22;1071;52.544;13.374;2022-08-21T00:30:48;22.20;99.90
2130;DHT22;1071;52.544;13.374;2022-08-21T00:33:16;22.20;99.90
2130;DHT22;1071;52.544;13.374;2022-08-21T00:35:43;22.20;99.90
2130;DHT22;1071;52.544;13.374;2022-08-21T00:38:11;22.20;99.90
2130;DHT22;1071;52.544;13.374;2022-08-21T00:40:43;22.20;99.90
2130;DHT22;1071;52.544;13.374;2022-08-21T00:43:15;22.20;99.90
2130;DHT22;1071;52.544;13.374;2022-08-21T00:45:43;22.20;99.90
2130;DHT22;1071;52.544;13.374;2022-08-21T00:48:13;22.10;99.90
2130;DHT22;1071;52.544;13.374;2022-08-21T00:50:44;22.10;99.90
2130;DHT22;1071;52.544;13.374;2022-08-21T00:53:13;22.10;99.90
2130;DHT22;1071;52.544;13.374;2022-08-21T00:55:41;22.10;99.90
2130;DHT22;1071;52.544;13.374;2022-08-21T00:58:12;22.10;99.90
2130;DHT22;1071;52.544;13.374;2022-08-21T01:00:43;22.10;99.90
2130;DHT22;1071;52.544;13.374;2022-08-21T01:03:17;22.10;99.90
2130;DHT22;1071;52.544;13.374;2022-08-21T01:05:45;22.10;99.90
2130;DHT22;1071;52.544;13.374;2022-08-21T01:08:17;22.00;99.90
2130;DHT22;1071;52.544;13.374;2022-08-21T01:10:44;22.00;99.90
2130;DHT22;1071;52.544;13.374;2022-08-21T01:13:17;22.00;99.90
2130;DHT22;1071;52.544;13.374;2022-08-21T01:15:48;22.00;99.90
2130;DHT22;1071;52.544;13.374;2022-08-21T01:18:16;22.00;99.90
2130;DHT22;1071;52.544;13.374;2022-08-21T01:20:55;22.00;99.90
2130;DHT22;1071;52.544;13.374;2022-08-21T01:23:22;21.90;99.90
2130;DHT22;1071;52.544;13.374;2022-08-21T01:25:51;21.90;99.90
2130;DHT22;1071;52.544;13.374;2022-08-21T01:28:18;21.90;99.90
2130;DHT22;1071;52.544;13.374;2022-08-21T01:30:45;21.90;99.90
2130;DHT22;1071;52.544;13.374;2022-08-21T01:33:13;21.80;99.90
2130;DHT22;1071;52.544;13.374;2022-08-21T01:35:40;21.80;99.90
2130;DHT22;1071;52.544;13.374;2022-08-21T01:38:08;21.80;99.90
2130;DHT22;1071;52.544;13.374;2022-08-21T01:40:35;21.80;99.90
2130;DHT22;1071;52.544;13.374;2022-08-21T01:43:03;21.80;99.90
2130;DHT22;1071;52.544;13.374;2022-08-21T01:45:30;21.80;99.90
2130;DHT22;1071;52.544;13.374;2022-08-21T01:47:57;21.70;99.90
2130;DHT22;1071;52.544;13.374;2022-08-21T01:50:25;21.70;99.90
2130;DHT22;1071;52.544;13.374;2022-08-21T01:52:54;21.70;99.90
2130;DHT22;1071;52.544;13.374;2022-08-21T01:55:22;21.70;99.90
2130;DHT22;1071;52.544;13.374;2022-08-21T01:57:50;21.70;99.90
2130;DHT22;1071;52.544;13.374;2022-08-21T02:00:19;21.70;99.90
2130;DHT22;1071;52.544;13.374;2022-08-21T02:02:48;21.60;99.90
2130;DHT22;1071;52.544;13.374;2022-08-21T02:05:16;21.60;99.90
2130;DHT22;1071;52.544;13.374;2022-08-21T02:07:46;21.60;99.90
2130;DHT22;1071;52.544;13.374;2022-08-21T02:10:17;21.50;99.90
2130;DHT22;1071;52.544;13.374;2022-08-21T02:12:46;21.50;99.90
2130;DHT22;1071;52.544;13.374;2022-08-21T02:15:14;21.50;99.90
2130;DHT22;1071;52.544;13.374;2022-08-21T02:17:43;21.40;99.90
2130;DHT22;1071;52.544;13.374;2022-08-21T02:20:18;21.40;99.90
2130;DHT22;1071;52.544;13.374;2022-08-21T02:22:45;21.40;99.90
2130;DHT22;1071;52.544;13.374;2022-08-21T02:25:13;21.40;99.90
2130;DHT22;1071;52.544;13.374;2022-08-21T02:27:41;21.40;99.90
2130;DHT22;1071;52.544;13.374;2022-08-21T02:30:13;21.40;99.90
2130;DHT22;1071;52.544;13.374;2022-08-21T02:32:41;21.40;99.90
2130;DHT22;1071;52.544;13.374;2022-08-21T02:35:09;21.30;99.90
2130;DHT22;1071;52.544;13.374;2022-08-21T02:37:43;21.40;99.90
2130;DHT22;1071;52.544;13.374;2022-08-21T02:40:12;21.30;99.90
2130;DHT22;1071;52.544;13.374;2022-08-21T02:42:39;21.30;99.90
2130;DHT22;1071;52.544;13.374;2022-08-21T02:45:07;21.30;99.90
2130;DHT22;1071;52.544;13.374;2022-08-21T02:47:36;21.30;99.90
2130;DHT22;1071;52.544;13.374;2022-08-21T02:50:04;21.30;99.90
2130;DHT22;1071;52.544;13.374;2022-08-21T02:52:31;21.20;99.90
2130;DHT22;1071;52.544;13.374;2022-08-21T02:54:59;21.20;99.90
2130;DHT22;1071;52.544;13.374;2022-08-21T02:57:26;21.20;99.90
2130;DHT22;1071;52.544;13.374;2022-08-21T02:59:53;21.20;99.90
2130;DHT22;1071;52.544;13.374;2022-08-21T03:02:20;21.20;99.90
2130;DHT22;1071;52.544;13.374;2022-08-21T03:04:49;21.10;99.90
2130;DHT22;1071;52.544;13.374;2022-08-21T03:07:16;21.10;99.90
2130;DHT22;1071;52.544;13.374;2022-08-21T03:09:43;21.10;99.90
2130;DHT22;1071;52.544;13.374;2022-08-21T03:12:10;21.10;99.90
2130;DHT22;1071;52.544;13.374;2022-08-21T03:14:37;21.10;99.90
2130;DHT22;1071;52.544;13.374;2022-08-21T03:17:05;21.00;99.90
2130;DHT22;1071;52.544;13.374;2022-08-21T03:19:32;21.00;99.90
2130;DHT22;1071;52.544;13.374;2022-08-21T03:22:03;21.00;99.90
2130;DHT22;1071;52.544;13.374;2022-08-21T03:24:30;20.90;99.90
2130;DHT22;1071;52.544;13.374;2022-08-21T03:26:57;20.90;99.90
2130;DHT22;1071;52.544;13.374;2022-08-21T03:29:25;20.90;99.90
2130;DHT22;1071;52.544;13.374;2022-08-21T03:31:52;20.90;99.90
2130;DHT22;1071;52.544;13.374;2022-08-21T03:34:20;20.90;99.90
2130;DHT22;1071;52.544;13.374;2022-08-21T03:36:47;20.80;99.90
2130;DHT22;1071;52.544;13.374;2022-08-21T03:39:16;20.80;99.90
2130;DHT22;1071;52.544;13.374;2022-08-21T03:41:44;20.80;99.90
2130;DHT22;1071;52.544;13.374;2022-08-21T03:44:12;20.80;99.90
2130;DHT22;1071;52.544;13.374;2022-08-21T03:46:40;20.70;99.90
2130;DHT22;1071;52.544;13.374;2022-08-21T03:49:07;20.70;99.90
2130;DHT22;1071;52.544;13.374;2022-08-21T03:51:43;20.70;99.90
2130;DHT22;1071;52.544;13.374;2022-08-21T03:54:11;20.70;99.90
2130;DHT22;1071;52.544;13.374;2022-08-21T03:56:40;20.70;99.90
2130;DHT22;1071;52.544;13.374;2022-08-21T03:59:07;20.70;99.90
2130;DHT22;1071;52.544;13.374;2022-08-21T04:01:34;20.60;99.90
2130;DHT22;1071;52.544;13.374;2022-08-21T04:04:02;20.60;99.90
2130;DHT22;1071;52.544;13.374;2022-08-21T04:06:29;20.60;99.90
2130;DHT22;1071;52.544;13.374;2022-08-21T04:08:57;20.60;99.90
2130;DHT22;1071;52.544;13.374;2022-08-21T04:11:24;20.60;99.90
2130;DHT22;1071;52.544;13.374;2022-08-21T04:13:52;20.60;99.90
2130;DHT22;1071;52.544;13.374;2022-08-21T04:16:19;20.60;99.90
2130;DHT22;1071;52.544;13.374;2022-08-21T04:18:46;20.50;99.90
2130;DHT22;1071;52.544;13.374;2022-08-21T04:21:13;20.50;99.90
2130;DHT22;1071;52.544;13.374;2022-08-21T04:23:41;20.50;99.90
2130;DHT22;1071;52.544;13.374;2022-08-21T04:26:08;20.50;99.90
2130;DHT22;1071;52.544;13.374;2022-08-21T04:28:35;20.50;99.90
2130;DHT22;1071;52.544;13.374;2022-08-21T04:31:03;20.40;99.90
2130;DHT22;1071;52.544;13.374;2022-08-21T04:33:30;20.50;99.90
2130;DHT22;1071;52.544;13.374;2022-08-21T04:35:58;20.40;99.90
2130;DHT22;1071;52.544;13.374;2022-08-21T04:38:25;20.50;99.90
2130;DHT22;1071;52.544;13.374;2022-08-21T04:40:57;20.40;99.90
2130;DHT22;1071;52.544;13.374;2022-08-21T04:43:24;20.40;99.90
2130;DHT22;1071;52.544;13.374;2022-08-21T04:45:52;20.40;99.90
2130;DHT22;1071;52.544;13.374;2022-08-21T04:48:22;20.40;99.90
2130;DHT22;1071;52.544;13.374;2022-08-21T04:50:54;20.40;99.90
2130;DHT22;1071;52.544;13.374;2022-08-21T04:53:25;20.40;99.90
2130;DHT22;1071;52.544;13.374;2022-08-21T04:55:54;20.40;99.90
2130;DHT22;1071;52.544;13.374;2022-08-21T04:58:25;20.40;99.90
2130;DHT22;1071;52.544;13.374;2022-08-21T05:00:54;20.40;99.90
2130;DHT22;1071;52.544;13.374;2022-08-21T05:03:24;20.30;99.90
2130;DHT22;1071;52.544;13.374;2022-08-21T05:05:51;20.40;99.90
2130;DHT22;1071;52.544;13.374;2022-08-21T05:08:20;20.40;99.90
2130;DHT22;1071;52.544;13.374;2022-08-21T05:10:48;20.40;99.90
2130;DHT22;1071;52.544;13.374;2022-08-21T05:13:16;20.30;99.90
2130;DHT22;1071;52.544;13.374;2022-08-21T05:15:43;20.40;99.90
2130;DHT22;1071;52.544;13.374;2022-08-21T05:18:10;20.30;99.90
2130;DHT22;1071;52.544;13.374;2022-08-21T05:20:39;20.30;99.90
2130;DHT22;1071;52.544;13.374;2022-08-21T05:23:07;20.30;99.90
2130;DHT22;1071;52.544;13.374;2022-08-21T05:25:35;20.40;99.90
2130;DHT22;1071;52.544;13.374;2022-08-21T05:28:03;20.40;99.90
2130;DHT22;1071;52.544;13.374;2022-08-21T05:30:31;20.40;99.90
2130;DHT22;1071;52.544;13.374;2022-08-21T05:33:00;20.40;99.90
2130;DHT22;1071;52.544;13.374;2022-08-21T05:35:29;20.40;99.90
2130;DHT22;1071;52.544;13.374;2022-08-21T05:37:59;20.40;99.90
2130;DHT22;1071;52.544;13.374;2022-08-21T05:40:27;20.40;99.90
2130;DHT22;1071;52.544;13.374;2022-08-21T05:42:55;20.40;99.90
2130;DHT22;1071;52.544;13.374;2022-08-21T05:45:25;20.40;99.90
2130;DHT22;1071;52.544;13.374;2022-08-21T05:47:52;20.40;99.90
2130;DHT22;1071;52.544;13.374;2022-08-21T05:50:20;20.40;99.90
2130;DHT22;1071;52.544;13.374;2022-08-21T05:52:47;20.40;99.90
2130;DHT22;1071;52.544;13.374;2022-08-21T05:55:15;20.40;99.90
2130;DHT22;1071;52.544;13.374;2022-08-21T05:57:42;20.40;99.90
2130;DHT22;1071;52.544;13.374;2022-08-21T06:00:10;20.40;99.90
2130;DHT22;1071;52.544;13.374;2022-08-21T06:02:37;20.40;99.90
2130;DHT22;1071;52.544;13.374;2022-08-21T06:05:05;20.50;99.90
2130;DHT22;1071;52.544;13.374;2022-08-21T06:07:33;20.50;99.90
2130;DHT22;1071;52.544;13.374;2022-08-21T06:10:01;20.50;99.90
2130;DHT22;1071;52.544;13.374;2022-08-21T06:12:29;20.60;99.90
2130;DHT22;1071;52.544;13.374;2022-08-21T06:14:56;20.60;99.90
2130;DHT22;1071;52.544;13.374;2022-08-21T06:17:23;20.60;99.90
2130;DHT22;1071;52.544;13.374;2022-08-21T06:19:51;20.60;99.90
2130;DHT22;1071;52.544;13.374;2022-08-21T06:22:19;20.70;99.90
2130;DHT22;1071;52.544;13.374;2022-08-21T06:24:46;20.70;99.90
2130;DHT22;1071;52.544;13.374;2022-08-21T06:27:14;20.70;99.90
2130;DHT22;1071;52.544;13.374;2022-08-21T06:29:44;20.70;99.90
2130;DHT22;1071;52.544;13.374;2022-08-21T06:32:12;20.80;99.90
2130;DHT22;1071;52.544;13.374;2022-08-21T06:34:40;20.80;99.90
2130;DHT22;1071;52.544;13.374;2022-08-21T06:37:08;20.80;99.90
2130;DHT22;1071;52.544;13.374;2022-08-21T06:39:35;20.90;99.90
2130;DHT22;1071;52.544;13.374;2022-08-21T06:42:02;20.90;99.90
2130;DHT22;1071;52.544;13.374;2022-08-21T06:44:30;20.90;99.90
2130;DHT22;1071;52.544;13.374;2022-08-21T06:46:59;21.00;99.90
2130;DHT22;1071;52.544;13.374;2022-08-21T06:49:26;21.00;99.90
2130;DHT22;1071;52.544;13.374;2022-08-21T06:51:52;21.10;99.90
2130;DHT22;1071;52.544;13.374;2022-08-21T06:54:19;21.10;99.90
2130;DHT22;1071;52.544;13.374;2022-08-21T06:56:46;21.10;99.90
2130;DHT22;1071;52.544;13.374;2022-08-21T06:59:13;21.20;99.90
2130;DHT22;1071;52.544;13.374;2022-08-21T07:01:40;21.20;99.90
2130;DHT22;1071;52.544;13.374;2022-08-21T07:04:09;21.30;99.90
2130;DHT22;1071;52.544;13.374;2022-08-21T07:06:36;21.30;99.90
2130;DHT22;1071;52.544;13.374;2022-08-21T07:09:03;21.30;99.90
2130;DHT22;1071;52.544;13.374;2022-08-21T07:11:30;21.40;99.90
2130;DHT22;1071;52.544;13.374;2022-08-21T07:13:57;21.40;99.90
2130;DHT22;1071;52.544;13.374;2022-08-21T07:16:24;21.50;99.90
2130;DHT22;1071;52.544;13.374;2022-08-21T07:18:51;21.60;99.90
2130;DHT22;1071;52.544;13.374;2022-08-21T07:21:20;21.60;99.90
2130;DHT22;1071;52.544;13.374;2022-08-21T07:23:49;21.70;99.90
2130;DHT22;1071;52.544;13.374;2022-08-21T07:26:20;21.70;99.90
2130;DHT22;1071;52.544;13.374;2022-08-21T07:28:51;21.70;99.90
2130;DHT22;1071;52.544;13.374;2022-08-21T07:31:21;21.80;99.90
2130;DHT22;1071;52.544;13.374;2022-08-21T07:33:49;21.90;99.90
2130;DHT22;1071;52.544;13.374;2022-08-21T07:36:16;21.90;99.90
2130;DHT22;1071;52.544;13.374;2022-08-21T07:38:44;22.00;99.90
2130;DHT22;1071;52.544;13.374;2022-08-21T07:41:14;22.00;99.90
2130;DHT22;1071;52.544;13.374;2022-08-21T07:43:43;22.10;99.90
2130;DHT22;1071;52.544;13.374;2022-08-21T07:46:11;22.10;99.90
2130;DHT22;1071;52.544;13.374;2022-08-21T07:48:38;22.20;99.90
2130;DHT22;1071;52.544;13.374;2022-08-21T07:51:10;22.20;99.90
2130;DHT22;1071;52.544;13.374;2022-08-21T07:53:38;22.30;99.90
2130;DHT22;1071;52.544;13.374;2022-08-21T07:56:08;22.40;99.90
2130;DHT22;1071;52.544;13.374;2022-08-21T07:58:36;22.40;99.90
2130;DHT22;1071;52.544;13.374;2022-08-21T08:01:06;22.50;99.90
2130;DHT22;1071;52.544;13.374;2022-08-21T08:03:33;22.60;99.90
2130;DHT22;1071;52.544;13.374;2022-08-21T08:06:01;22.60;99.90
2130;DHT22;1071;52.544;13.374;2022-08-21T08:08:30;22.70;99.90
2130;DHT22;1071;52.544;13.374;2022-08-21T08:11:08;22.70;99.90
2130;DHT22;1071;52.544;13.374;2022-08-21T08:13:39;22.80;99.90
2130;DHT22;1071;52.544;13.374;2022-08-21T08:16:07;22.80;99.90
2130;DHT22;1071;52.544;13.374;2022-08-21T08:18:34;22.80;99.90
2130;DHT22;1071;52.544;13.374;2022-08-21T08:21:01;22.90;99.90
2130;DHT22;1071;52.544;13.374;2022-08-21T08:23:28;22.90;99.90
2130;DHT22;1071;52.544;13.374;2022-08-21T08:25:56;23.00;99.90
2130;DHT22;1071;52.544;13.374;2022-08-21T08:28:25;23.00;99.90
2130;DHT22;1071;52.544;13.374;2022-08-21T08:30:52;23.00;99.90
2130;DHT22;1071;52.544;13.374;2022-08-21T08:33:19;23.10;99.90
2130;DHT22;1071;52.544;13.374;2022-08-21T08:35:49;23.10;99.90
2130;DHT22;1071;52.544;13.374;2022-08-21T08:38:17;23.20;99.90
2130;DHT22;1071;52.544;13.374;2022-08-21T08:43:36;23.20;99.90
2130;DHT22;1071;52.544;13.374;2022-08-21T08:46:06;23.30;99.90
2130;DHT22;1071;52.544;13.374;2022-08-21T08:48:46;23.40;99.90
2130;DHT22;1071;52.544;13.374;2022-08-21T08:51:21;23.40;99.90
2130;DHT22;1071;52.544;13.374;2022-08-21T08:53:52;23.40;99.90
2130;DHT22;1071;52.544;13.374;2022-08-21T08:56:27;23.40;99.90
2130;DHT22;1071;52.544;13.374;2022-08-21T08:59:00;23.50;99.90
2130;DHT22;1071;52.544;13.374;2022-08-21T09:01:31;23.50;99.90
2130;DHT22;1071;52.544;13.374;2022-08-21T09:03:58;23.60;99.90
2130;DHT22;1071;52.544;13.374;2022-08-21T09:06:37;23.60;99.90
2130;DHT22;1071;52.544;13.374;2022-08-21T09:09:17;23.60;99.90
2130;DHT22;1071;52.544;13.374;2022-08-21T09:11:50;23.70;99.90
2130;DHT22;1071;52.544;13.374;2022-08-21T09:14:26;23.70;99.90
2130;DHT22;1071;52.544;13.374;2022-08-21T09:17:08;23.80;99.80
2130;DHT22;1071;52.544;13.374;2022-08-21T09:19:48;23.70;99.90
2130;DHT22;1071;52.544;13.374;2022-08-21T09:22:22;23.60;99.90
2130;DHT22;1071;52.544;13.374;2022-08-21T09:24:57;23.60;99.90
2130;DHT22;1071;52.544;13.374;2022-08-21T09:27:26;23.50;99.90
2130;DHT22;1071;52.544;13.374;2022-08-21T09:29:55;23.50;99.90
2130;DHT22;1071;52.544;13.374;2022-08-21T09:32:31;23.50;99.90
2130;DHT22;1071;52.544;13.374;2022-08-21T09:35:06;23.40;99.90
2130;DHT22;1071;52.544;13.374;2022-08-21T09:37:43;23.40;99.90
2130;DHT22;1071;52.544;13.374;2022-08-21T09:40:33;23.40;99.90
2130;DHT22;1071;52.544;13.374;2022-08-21T09:43:02;23.40;99.90
2130;DHT22;1071;52.544;13.374;2022-08-21T09:45:32;23.40;99.90
2130;DHT22;1071;52.544;13.374;2022-08-21T09:48:09;23.40;99.90
2130;DHT22;1071;52.544;13.374;2022-08-21T09:50:36;23.50;99.90
2130;DHT22;1071;52.544;13.374;2022-08-21T09:53:04;23.60;99.60
2130;DHT22;1071;52.544;13.374;2022-08-21T09:55:34;23.70;99.80
2130;DHT22;1071;52.544;13.374;2022-08-21T09:58:20;23.80;99.50
2130;DHT22;1071;52.544;13.374;2022-08-21T10:00:57;23.90;99.10
2130;DHT22;1071;52.544;13.374;2022-08-21T10:03:25;23.90;99.90
2130;DHT22;1071;52.544;13.374;2022-08-21T10:05:57;24.00;99.30
2130;DHT22;1071;52.544;13.374;2022-08-21T10:08:27;24.00;98.60
2130;DHT22;1071;52.544;13.374;2022-08-21T10:10:56;24.10;98.30
2130;DHT22;1071;52.544;13.374;2022-08-21T10:13:34;24.20;97.80
2130;DHT22;1071;52.544;13.374;2022-08-21T10:16:15;24.20;97.30
2130;DHT22;1071;52.544;13.374;2022-08-21T10:18:56;24.30;97.00
2130;DHT22;1071;52.544;13.374;2022-08-21T10:21:30;24.30;99.40
2130;DHT22;1071;52.544;13.374;2022-08-21T10:24:07;24.30;97.80
2130;DHT22;1071;52.544;13.374;2022-08-21T10:26:45;24.30;98.10
2130;DHT22;1071;52.544;13.374;2022-08-21T10:29:28;24.40;97.00
2130;DHT22;1071;52.544;13.374;2022-08-21T10:32:04;24.40;97.00
2130;DHT22;1071;52.544;13.374;2022-08-21T10:34:41;24.50;97.20
2130;DHT22;1071;52.544;13.374;2022-08-21T10:37:20;24.50;96.70
2130;DHT22;1071;52.544;13.374;2022-08-21T10:40:02;24.60;96.90
2130;DHT22;1071;52.544;13.374;2022-08-21T10:42:38;24.60;96.60
2130;DHT22;1071;52.544;13.374;2022-08-21T10:45:14;24.60;96.90
2130;DHT22;1071;52.544;13.374;2022-08-21T10:47:47;24.60;97.90
2130;DHT22;1071;52.544;13.374;2022-08-21T10:50:28;24.70;96.50
2130;DHT22;1071;52.544;13.374;2022-08-21T10:53:05;24.80;95.60
2130;DHT22;1071;52.544;13.374;2022-08-21T10:55:37;24.80;94.60
2130;DHT22;1071;52.544;13.374;2022-08-21T10:58:10;24.80;95.50
2130;DHT22;1071;52.544;13.374;2022-08-21T11:00:43;24.80;98.10
2130;DHT22;1071;52.544;13.374;2022-08-21T11:03:17;24.80;97.80
2130;DHT22;1071;52.544;13.374;2022-08-21T11:05:49;24.80;98.60
2130;DHT22;1071;52.544;13.374;2022-08-21T11:08:21;24.90;97.90
2130;DHT22;1071;52.544;13.374;2022-08-21T11:10:53;24.90;97.80
2130;DHT22;1071;52.544;13.374;2022-08-21T11:13:29;24.90;97.40
2130;DHT22;1071;52.544;13.374;2022-08-21T11:16:09;25.00;96.50
2130;DHT22;1071;52.544;13.374;2022-08-21T11:18:41;25.00;97.30
2130;DHT22;1071;52.544;13.374;2022-08-21T11:21:26;25.00;96.50
2130;DHT22;1071;52.544;13.374;2022-08-21T11:24:12;25.00;95.40
2130;DHT22;1071;52.544;13.374;2022-08-21T11:26:46;25.10;95.60
2130;DHT22;1071;52.544;13.374;2022-08-21T11:29:21;25.20;94.70
2130;DHT22;1071;52.544;13.374;2022-08-21T11:32:01;25.30;92.70
2130;DHT22;1071;52.544;13.374;2022-08-21T11:34:41;25.40;93.50
2130;DHT22;1071;52.544;13.374;2022-08-21T11:37:16;25.40;94.20
2130;DHT22;1071;52.544;13.374;2022-08-21T11:39:52;25.40;94.30
2130;DHT22;1071;52.544;13.374;2022-08-21T11:42:27;25.40;94.00
2130;DHT22;1071;52.544;13.374;2022-08-21T11:45:11;25.30;93.40
2130;DHT22;1071;52.544;13.374;2022-08-21T11:47:54;25.30;93.10
2130;DHT22;1071;52.544;13.374;2022-08-21T11:50:27;25.40;92.60
2130;DHT22;1071;52.544;13.374;2022-08-21T11:53:11;25.40;92.10
2130;DHT22;1071;52.544;13.374;2022-08-21T11:55:42;25.40;91.80
2130;DHT22;1071;52.544;13.374;2022-08-21T11:58:21;25.40;91.80
2130;DHT22;1071;52.544;13.374;2022-08-21T12:00:59;25.50;90.80
2130;DHT22;1071;52.544;13.374;2022-08-21T12:03:29;25.60;90.90
2130;DHT22;1071;52.544;13.374;2022-08-21T12:06:02;25.60;90.80
2130;DHT22;1071;52.544;13.374;2022-08-21T12:08:33;25.60;90.60
2130;DHT22;1071;52.544;13.374;2022-08-21T12:11:04;25.60;90.50
2130;DHT22;1071;52.544;13.374;2022-08-21T12:13:33;25.60;90.20
2130;DHT22;1071;52.544;13.374;2022-08-21T12:16:09;25.60;89.70
2130;DHT22;1071;52.544;13.374;2022-08-21T12:18:37;25.60;89.10
2130;DHT22;1071;52.544;13.374;2022-08-21T12:21:19;25.60;88.40
2130;DHT22;1071;52.544;13.374;2022-08-21T12:23:59;25.70;86.70
2130;DHT22;1071;52.544;13.374;2022-08-21T12:26:32;25.60;87.90
2130;DHT22;1071;52.544;13.374;2022-08-21T12:29:07;25.60;88.30
2130;DHT22;1071;52.544;13.374;2022-08-21T12:31:52;25.60;88.20
2130;DHT22;1071;52.544;13.374;2022-08-21T12:34:20;25.60;86.90
2130;DHT22;1071;52.544;13.374;2022-08-21T12:37:02;25.50;88.10
2130;DHT22;1071;52.544;13.374;2022-08-21T12:39:32;25.50;87.70
2130;DHT22;1071;52.544;13.374;2022-08-21T12:42:06;25.50;87.80
2130;DHT22;1071;52.544;13.374;2022-08-21T12:44:40;25.50;87.60
2130;DHT22;1071;52.544;13.374;2022-08-21T12:47:15;25.50;86.20
2130;DHT22;1071;52.544;13.374;2022-08-21T12:49:53;25.60;84.70
2130;DHT22;1071;52.544;13.374;2022-08-21T12:52:27;25.50;84.30
2130;DHT22;1071;52.544;13.374;2022-08-21T12:54:55;25.50;83.70
2130;DHT22;1071;52.544;13.374;2022-08-21T13:00:37;25.50;85.50
2130;DHT22;1071;52.544;13.374;2022-08-21T13:03:04;25.60;85.90
2130;DHT22;1071;52.544;13.374;2022-08-21T13:05:35;25.60;85.20
2130;DHT22;1071;52.544;13.374;2022-08-21T13:08:07;25.60;87.00
2130;DHT22;1071;52.544;13.374;2022-08-21T13:10:35;25.40;87.20
2130;DHT22;1071;52.544;13.374;2022-08-21T13:13:04;25.40;86.40
2130;DHT22;1071;52.544;13.374;2022-08-21T13:15:35;25.40;87.70
2130;DHT22;1071;52.544;13.374;2022-08-21T13:18:04;25.30;88.00
2130;DHT22;1071;52.544;13.374;2022-08-21T13:20:34;25.30;88.20
2130;DHT22;1071;52.544;13.374;2022-08-21T13:23:02;25.40;86.60
2130;DHT22;1071;52.544;13.374;2022-08-21T13:25:37;25.50;86.20
2130;DHT22;1071;52.544;13.374;2022-08-21T13:28:06;25.40;86.90
2130;DHT22;1071;52.544;13.374;2022-08-21T13:30:34;25.50;85.80
2130;DHT22;1071;52.544;13.374;2022-08-21T13:33:05;25.50;85.90
2130;DHT22;1071;52.544;13.374;2022-08-21T13:35:44;25.50;86.00
2130;DHT22;1071;52.544;13.374;2022-08-21T13:38:12;25.50;86.50
2130;DHT22;1071;52.544;13.374;2022-08-21T13:40:44;25.50;85.60
2130;DHT22;1071;52.544;13.374;2022-08-21T13:43:13;25.50;85.90
2130;DHT22;1071;52.544;13.374;2022-08-21T13:45:44;25.50;85.60
2130;DHT22;1071;52.544;13.374;2022-08-21T13:48:11;25.50;85.90
2130;DHT22;1071;52.544;13.374;2022-08-21T13:50:41;25.50;83.20
2130;DHT22;1071;52.544;13.374;2022-08-21T13:53:21;25.60;85.90
2130;DHT22;1071;52.544;13.374;2022-08-21T13:55:50;25.50;85.90
2130;DHT22;1071;52.544;13.374;2022-08-21T13:58:25;25.50;86.90
2130;DHT22;1071;52.544;13.374;2022-08-21T14:00:53;25.60;87.30
2130;DHT22;1071;52.544;13.374;2022-08-21T14:03:32;25.60;87.50
2130;DHT22;1071;52.544;13.374;2022-08-21T14:05:59;25.60;87.90
2130;DHT22;1071;52.544;13.374;2022-08-21T14:08:31;25.50;87.80
2130;DHT22;1071;52.544;13.374;2022-08-21T14:11:03;25.60;87.30
2130;DHT22;1071;52.544;13.374;2022-08-21T14:13:36;25.60;87.50
2130;DHT22;1071;52.544;13.374;2022-08-21T14:16:12;25.60;87.50
2130;DHT22;1071;52.544;13.374;2022-08-21T14:18:45;25.60;88.00
2130;DHT22;1071;52.544;13.374;2022-08-21T14:21:12;25.60;88.00
2130;DHT22;1071;52.544;13.374;2022-08-21T14:23:42;25.60;88.40
2130;DHT22;1071;52.544;13.374;2022-08-21T14:26:11;25.70;88.20
2130;DHT22;1071;52.544;13.374;2022-08-21T14:28:40;25.70;88.10
2130;DHT22;1071;52.544;13.374;2022-08-21T14:31:14;25.60;88.00
2130;DHT22;1071;52.544;13.374;2022-08-21T14:33:42;25.70;87.40
2130;DHT22;1071;52.544;13.374;2022-08-21T14:36:10;25.60;86.50
2130;DHT22;1071;52.544;13.374;2022-08-21T14:38:39;25.70;86.50
2130;DHT22;1071;52.544;13.374;2022-08-21T14:41:14;25.50;88.40
2130;DHT22;1071;52.544;13.374;2022-08-21T14:43:43;25.30;88.60
2130;DHT22;1071;52.544;13.374;2022-08-21T14:46:11;25.30;89.00
2130;DHT22;1071;52.544;13.374;2022-08-21T14:48:39;25.30;89.70
2130;DHT22;1071;52.544;13.374;2022-08-21T14:51:06;25.20;89.70
2130;DHT22;1071;52.544;13.374;2022-08-21T14:53:36;25.20;90.00
2130;DHT22;1071;52.544;13.374;2022-08-21T14:56:03;25.20;90.20
2130;DHT22;1071;52.544;13.374;2022-08-21T14:58:40;25.20;90.30
2130;DHT22;1071;52.544;13.374;2022-08-21T15:01:09;25.10;90.50
2130;DHT22;1071;52.544;13.374;2022-08-21T15:03:38;25.10;90.40
2130;DHT22;1071;52.544;13.374;2022-08-21T15:06:06;25.10;90.10
2130;DHT22;1071;52.544;13.374;2022-08-21T15:08:33;25.10;90.50
2130;DHT22;1071;52.544;13.374;2022-08-21T15:11:09;25.10;90.50
2130;DHT22;1071;52.544;13.374;2022-08-21T15:13:39;25.10;90.80
2130;DHT22;1071;52.544;13.374;2022-08-21T15:16:08;25.10;90.20
2130;DHT22;1071;52.544;13.374;2022-08-21T15:18:35;25.20;90.00
2130;DHT22;1071;52.544;13.374;2022-08-21T15:21:02;25.20;89.00
2130;DHT22;1071;52.544;13.374;2022-08-21T15:23:29;25.20;88.40
2130;DHT22;1071;52.544;13.374;2022-08-21T15:25:57;25.20;88.60
2130;DHT22;1071;52.544;13.374;2022-08-21T15:28:24;25.20;90.30
2130;DHT22;1071;52.544;13.374;2022-08-21T15:30:53;25.20;90.20
2130;DHT22;1071;52.544;13.374;2022-08-21T15:33:20;25.20;90.10
2130;DHT22;1071;52.544;13.374;2022-08-21T15:35:48;25.10;90.90
2130;DHT22;1071;52.544;13.374;2022-08-21T15:38:15;25.00;90.70
2130;DHT22;1071;52.544;13.374;2022-08-21T15:40:42;25.10;86.70
2130;DHT22;1071;52.544;13.374;2022-08-21T15:43:18;25.00;90.50
2130;DHT22;1071;52.544;13.374;2022-08-21T15:45:47;25.00;90.60
2130;DHT22;1071;52.544;13.374;2022-08-21T15:48:19;25.00;90.90
2130;DHT22;1071;52.544;13.374;2022-08-21T15:50:47;25.00;90.90
2130;DHT22;1071;52.544;13.374;2022-08-21T15:53:14;25.00;90.70
2130;DHT22;1071;52.544;13.374;2022-08-21T15:55:42;25.00;90.90
2130;DHT22;1071;52.544;13.374;2022-08-21T15:58:13;24.80;91.10
2130;DHT22;1071;52.544;13.374;2022-08-21T16:00:41;24.80;91.00
2130;DHT22;1071;52.544;13.374;2022-08-21T16:03:17;24.90;90.80
2130;DHT22;1071;52.544;13.374;2022-08-21T16:05:50;24.90;90.70
2130;DHT22;1071;52.544;13.374;2022-08-21T16:08:18;24.90;90.10
2130;DHT22;1071;52.544;13.374;2022-08-21T16:10:46;24.90;90.00